sensor_id;sensor_type;location;lat;lon;timestamp;P1;durP1;ratioP1;P2;durP2;ratioP2
69917;SDS011;57203;42.672;23.334;2022-12-07T00:00:49;28.7;;;13.4;;
69917;SDS011;57203;42.672;23.334;2022-12-07T00:01:49;26.9;;;13.3;;
69917;SDS011;57203;42.672;23.334;2022-12-07T00:02:49;25.5;;;14.4;;
69917;SDS011;57203;42.672;23.334;2022-12-07T00:03:51;29.6;;;14.8;;
69917;SDS011;57203;42.672;23.334;2022-12-07T00:04:50;27.3;;;13.4;;
69917;SDS011;57203;42.672;23.334;2022-12-07T00:05:50;22.5;;;14.7;;
69917;SDS011;57203;42.672;23.334;2022-12-07T00:06:51;29.8;;;13.5;;
69917;SDS011;57203;42.672;23.334;2022-12-07T00:07:50;27.6;;;12.8;;
69917;SDS011;57203;42.672;23.334;2022-12-07T00:08:51;24.5;;;13.6;;
69917;SDS011;57203;42.672;23.334;2022-12-07T00:09:51;25.7;;;13.5;;
69917;SDS011;57203;42.672;23.334;2022-12-07T00:10:51;30.3;;;13.4;;
69917;SDS011;57203;42.672;23.334;2022-12-07T00:11:51;26.5;;;13.8;;
69917;SDS011;57203;42.672;23.334;2022-12-07T00:12:51;26.1;;;14.4;;
69917;SDS011;57203;42.672;23.334;2022-12-07T00:13:52;26.1;;;13.6;;
69917;SDS011;57203;42.672;23.334;2022-12-07T00:14:51;26.0;;;13.7;;
69917;SDS011;57203;42.672;23.334;2022-12-07T00:15:52;26.9;;;14.1;;
69917;SDS011;57203;42.672;23.334;2022-12-07T00:16:52;28.1;;;14.2;;
69917;SDS011;57203;42.672;23.334;2022-12-07T00:17:52;25.9;;;13.0;;
69917;SDS011;57203;42.672;23.334;2022-12-07T00:18:52;26.3;;;13.6;;
69917;SDS011;57203;42.672;23.334;2022-12-07T00:19:52;26.3;;;14.2;;
69917;SDS011;57203;42.672;23.334;2022-12-07T00:20:53;28.3;;;13.5;;
69917;SDS011;57203;42.672;23.334;2022-12-07T00:21:53;25.6;;;13.6;;
69917;SDS011;57203;42.672;23.334;2022-12-07T00:22:53;24.6;;;13.2;;
69917;SDS011;57203;42.672;23.334;2022-12-07T00:23:53;23.3;;;14.4;;
69917;SDS011;57203;42.672;23.334;2022-12-07T00:24:53;26.2;;;13.7;;
69917;SDS011;57203;42.672;23.334;2022-12-07T00:25:53;28.6;;;14.6;;
69917;SDS011;57203;42.672;23.334;2022-12-07T00:26:53;26.6;;;14.3;;
69917;SDS011;57203;42.672;23.334;2022-12-07T00:27:54;25.9;;;13.3;;
69917;SDS011;57203;42.672;23.334;2022-12-07T00:28:55;25.9;;;12.7;;
69917;SDS011;57203;42.672;23.334;2022-12-07T00:29:54;28.8;;;14.5;;
69917;SDS011;57203;42.672;23.334;2022-12-07T00:30:59;28.3;;;14.6;;
69917;SDS011;57203;42.672;23.334;2022-12-07T00:31:54;32.3;;;13.4;;
69917;SDS011;57203;42.672;23.334;2022-12-07T00:32:55;27.2;;;14.5;;
69917;SDS011;57203;42.672;23.334;2022-12-07T00:33:55;27.2;;;14.7;;
69917;SDS011;57203;42.672;23.334;2022-12-07T00:34:55;27.7;;;13.9;;
69917;SDS011;57203;42.672;23.334;2022-12-07T00:35:56;26.6;;;14.6;;
69917;SDS011;57203;42.672;23.334;2022-12-07T00:36:55;29.8;;;15.0;;
69917;SDS011;57203;42.672;23.334;2022-12-07T00:37:55;29.5;;;13.9;;
69917;SDS011;57203;42.672;23.334;2022-12-07T00:38:57;28.7;;;14.0;;
69917;SDS011;57203;42.672;23.334;2022-12-07T00:39:56;29.3;;;15.5;;
69917;SDS011;57203;42.672;23.334;2022-12-07T00:40:56;31.1;;;14.9;;
69917;SDS011;57203;42.672;23.334;2022-12-07T00:41:56;31.1;;;14.5;;
69917;SDS011;57203;42.672;23.334;2022-12-07T00:42:56;28.2;;;14.9;;
69917;SDS011;57203;42.672;23.334;2022-12-07T00:43:57;28.3;;;13.8;;
69917;SDS011;57203;42.672;23.334;2022-12-07T00:44:57;28.3;;;14.6;;
69917;SDS011;57203;42.672;23.334;2022-12-07T00:45:57;31.1;;;15.4;;
69917;SDS011;57203;42.672;23.334;2022-12-07T00:46:57;30.8;;;14.7;;
69917;SDS011;57203;42.672;23.334;2022-12-07T00:47:57;30.8;;;13.8;;
69917;SDS011;57203;42.672;23.334;2022-12-07T00:48:57;32.6;;;15.0;;
69917;SDS011;57203;42.672;23.334;2022-12-07T00:49:57;28.8;;;14.1;;
69917;SDS011;57203;42.672;23.334;2022-12-07T00:50:58;26.3;;;14.7;;
69917;SDS011;57203;42.672;23.334;2022-12-07T00:51:58;31.5;;;13.8;;
69917;SDS011;57203;42.672;23.334;2022-12-07T00:52:58;27.4;;;14.2;;
69917;SDS011;57203;42.672;23.334;2022-12-07T00:53:58;28.8;;;15.5;;
69917;SDS011;57203;42.672;23.334;2022-12-07T00:54:58;28.2;;;15.0;;
69917;SDS011;57203;42.672;23.334;2022-12-07T00:56:04;28.2;;;14.8;;
69917;SDS011;57203;42.672;23.334;2022-12-07T00:56:59;29.1;;;15.3;;
69917;SDS011;57203;42.672;23.334;2022-12-07T00:57:59;28.7;;;14.9;;
69917;SDS011;57203;42.672;23.334;2022-12-07T00:59:00;27.3;;;15.4;;
69917;SDS011;57203;42.672;23.334;2022-12-07T00:59:59;29.7;;;14.0;;
69917;SDS011;57203;42.672;23.334;2022-12-07T01:01:00;31.4;;;14.8;;
69917;SDS011;57203;42.672;23.334;2022-12-07T01:01:59;29.0;;;15.7;;
69917;SDS011;57203;42.672;23.334;2022-12-07T01:03:00;29.0;;;24.0;;
69917;SDS011;57203;42.672;23.334;2022-12-07T01:04:00;34.8;;;18.4;;
69917;SDS011;57203;42.672;23.334;2022-12-07T01:05:00;34.8;;;21.0;;
69917;SDS011;57203;42.672;23.334;2022-12-07T01:06:00;38.2;;;18.2;;
69917;SDS011;57203;42.672;23.334;2022-12-07T01:07:00;36.1;;;14.9;;
69917;SDS011;57203;42.672;23.334;2022-12-07T01:08:01;28.1;;;15.5;;
69917;SDS011;57203;42.672;23.334;2022-12-07T01:09:01;33.8;;;16.0;;
69917;SDS011;57203;42.672;23.334;2022-12-07T01:10:01;33.8;;;15.5;;
69917;SDS011;57203;42.672;23.334;2022-12-07T01:11:02;28.3;;;15.1;;
69917;SDS011;57203;42.672;23.334;2022-12-07T01:12:01;28.8;;;14.5;;
69917;SDS011;57203;42.672;23.334;2022-12-07T01:13:01;25.3;;;13.6;;
69917;SDS011;57203;42.672;23.334;2022-12-07T01:14:02;26.6;;;14.2;;
69917;SDS011;57203;42.672;23.334;2022-12-07T01:15:02;25.5;;;14.6;;
69917;SDS011;57203;42.672;23.334;2022-12-07T01:16:03;29.8;;;13.6;;
69917;SDS011;57203;42.672;23.334;2022-12-07T01:17:02;26.0;;;14.0;;
69917;SDS011;57203;42.672;23.334;2022-12-07T01:18:02;26.0;;;14.1;;
69917;SDS011;57203;42.672;23.334;2022-12-07T01:19:02;24.4;;;13.8;;
69917;SDS011;57203;42.672;23.334;2022-12-07T01:20:03;28.8;;;14.0;;
69917;SDS011;57203;42.672;23.334;2022-12-07T01:22:03;27.9;;;14.1;;
69917;SDS011;57203;42.672;23.334;2022-12-07T01:23:03;28.8;;;15.3;;
69917;SDS011;57203;42.672;23.334;2022-12-07T01:24:04;29.6;;;14.0;;
69917;SDS011;57203;42.672;23.334;2022-12-07T01:25:04;26.4;;;14.8;;
69917;SDS011;57203;42.672;23.334;2022-12-07T01:26:04;27.2;;;13.7;;
69917;SDS011;57203;42.672;23.334;2022-12-07T01:27:04;25.7;;;14.3;;
69917;SDS011;57203;42.672;23.334;2022-12-07T01:29:04;27.2;;;14.0;;
69917;SDS011;57203;42.672;23.334;2022-12-07T01:30:05;27.9;;;14.8;;
69917;SDS011;57203;42.672;23.334;2022-12-07T01:31:06;29.7;;;13.8;;
69917;SDS011;57203;42.672;23.334;2022-12-07T01:32:05;26.3;;;16.3;;
69917;SDS011;57203;42.672;23.334;2022-12-07T01:33:05;29.4;;;16.4;;
69917;SDS011;57203;42.672;23.334;2022-12-07T01:34:05;29.4;;;15.4;;
69917;SDS011;57203;42.672;23.334;2022-12-07T01:36:07;27.2;;;14.4;;
69917;SDS011;57203;42.672;23.334;2022-12-07T01:38:06;26.8;;;14.1;;
69917;SDS011;57203;42.672;23.334;2022-12-07T01:39:06;26.4;;;15.2;;
69917;SDS011;57203;42.672;23.334;2022-12-07T01:40:07;31.4;;;14.3;;
69917;SDS011;57203;42.672;23.334;2022-12-07T01:41:06;26.7;;;15.0;;
69917;SDS011;57203;42.672;23.334;2022-12-07T01:42:08;28.3;;;15.5;;
69917;SDS011;57203;42.672;23.334;2022-12-07T01:43:09;30.1;;;14.9;;
69917;SDS011;57203;42.672;23.334;2022-12-07T01:44:12;30.1;;;14.7;;
69917;SDS011;57203;42.672;23.334;2022-12-07T01:46:07;30.6;;;15.2;;
69917;SDS011;57203;42.672;23.334;2022-12-07T01:48:07;27.0;;;15.1;;
69917;SDS011;57203;42.672;23.334;2022-12-07T01:49:08;29.3;;;14.6;;
69917;SDS011;57203;42.672;23.334;2022-12-07T01:50:08;27.6;;;16.6;;
69917;SDS011;57203;42.672;23.334;2022-12-07T01:51:09;33.4;;;15.9;;
69917;SDS011;57203;42.672;23.334;2022-12-07T01:52:10;31.9;;;15.0;;
69917;SDS011;57203;42.672;23.334;2022-12-07T01:53:09;29.6;;;14.8;;
69917;SDS011;57203;42.672;23.334;2022-12-07T01:54:09;29.6;;;15.1;;
69917;SDS011;57203;42.672;23.334;2022-12-07T01:55:10;27.9;;;14.4;;
69917;SDS011;57203;42.672;23.334;2022-12-07T01:56:09;27.2;;;15.1;;
69917;SDS011;57203;42.672;23.334;2022-12-07T01:57:09;31.4;;;16.2;;
69917;SDS011;57203;42.672;23.334;2022-12-07T01:58:09;28.4;;;14.8;;
69917;SDS011;57203;42.672;23.334;2022-12-07T01:59:09;26.8;;;14.6;;
69917;SDS011;57203;42.672;23.334;2022-12-07T02:00:10;29.6;;;14.4;;
69917;SDS011;57203;42.672;23.334;2022-12-07T02:01:10;28.8;;;15.0;;
69917;SDS011;57203;42.672;23.334;2022-12-07T02:02:13;30.0;;;13.6;;
69917;SDS011;57203;42.672;23.334;2022-12-07T02:03:11;24.6;;;14.1;;
69917;SDS011;57203;42.672;23.334;2022-12-07T02:04:10;24.9;;;13.7;;
69917;SDS011;57203;42.672;23.334;2022-12-07T02:05:10;23.5;;;12.3;;
69917;SDS011;57203;42.672;23.334;2022-12-07T02:06:12;23.5;;;14.0;;
69917;SDS011;57203;42.672;23.334;2022-12-07T02:07:11;27.0;;;14.8;;
69917;SDS011;57203;42.672;23.334;2022-12-07T02:08:11;27.0;;;14.3;;
69917;SDS011;57203;42.672;23.334;2022-12-07T02:10:12;27.0;;;14.6;;
69917;SDS011;57203;42.672;23.334;2022-12-07T02:11:11;27.0;;;14.1;;
69917;SDS011;57203;42.672;23.334;2022-12-07T02:12:11;24.8;;;14.6;;
69917;SDS011;57203;42.672;23.334;2022-12-07T02:13:12;33.4;;;15.5;;
69917;SDS011;57203;42.672;23.334;2022-12-07T02:14:12;33.7;;;14.4;;
69917;SDS011;57203;42.672;23.334;2022-12-07T02:16:15;28.9;;;14.6;;
69917;SDS011;57203;42.672;23.334;2022-12-07T02:17:14;28.9;;;15.2;;
69917;SDS011;57203;42.672;23.334;2022-12-07T02:18:14;28.7;;;14.2;;
69917;SDS011;57203;42.672;23.334;2022-12-07T02:19:21;26.6;;;14.4;;
69917;SDS011;57203;42.672;23.334;2022-12-07T02:20:17;27.1;;;14.8;;
69917;SDS011;57203;42.672;23.334;2022-12-07T02:21:15;26.5;;;13.7;;
69917;SDS011;57203;42.672;23.334;2022-12-07T02:23:22;28.0;;;14.0;;
69917;SDS011;57203;42.672;23.334;2022-12-07T02:24:19;28.4;;;12.8;;
69917;SDS011;57203;42.672;23.334;2022-12-07T02:25:15;29.2;;;14.8;;
69917;SDS011;57203;42.672;23.334;2022-12-07T02:26:20;29.2;;;15.3;;
69917;SDS011;57203;42.672;23.334;2022-12-07T02:27:20;28.1;;;16.8;;
69917;SDS011;57203;42.672;23.334;2022-12-07T02:28:17;30.0;;;16.4;;
69917;SDS011;57203;42.672;23.334;2022-12-07T02:29:17;27.7;;;16.1;;
69917;SDS011;57203;42.672;23.334;2022-12-07T02:30:15;27.7;;;14.9;;
69917;SDS011;57203;42.672;23.334;2022-12-07T02:31:16;25.4;;;15.6;;
69917;SDS011;57203;42.672;23.334;2022-12-07T02:32:16;29.8;;;14.7;;
69917;SDS011;57203;42.672;23.334;2022-12-07T02:33:16;29.8;;;14.6;;
69917;SDS011;57203;42.672;23.334;2022-12-07T02:34:18;27.8;;;14.3;;
69917;SDS011;57203;42.672;23.334;2022-12-07T02:35:17;26.0;;;14.4;;
69917;SDS011;57203;42.672;23.334;2022-12-07T02:36:17;27.3;;;13.8;;
69917;SDS011;57203;42.672;23.334;2022-12-07T02:37:19;27.2;;;13.5;;
69917;SDS011;57203;42.672;23.334;2022-12-07T02:38:18;26.9;;;14.0;;
69917;SDS011;57203;42.672;23.334;2022-12-07T02:39:17;29.7;;;14.2;;
69917;SDS011;57203;42.672;23.334;2022-12-07T02:40:17;28.6;;;14.5;;
69917;SDS011;57203;42.672;23.334;2022-12-07T02:42:18;27.9;;;14.2;;
69917;SDS011;57203;42.672;23.334;2022-12-07T02:43:18;27.9;;;14.5;;
69917;SDS011;57203;42.672;23.334;2022-12-07T02:44:18;28.2;;;15.1;;
69917;SDS011;57203;42.672;23.334;2022-12-07T02:45:18;30.7;;;14.1;;
69917;SDS011;57203;42.672;23.334;2022-12-07T02:46:20;24.8;;;13.8;;
69917;SDS011;57203;42.672;23.334;2022-12-07T02:47:18;29.7;;;14.0;;
69917;SDS011;57203;42.672;23.334;2022-12-07T02:48:18;29.7;;;14.3;;
69917;SDS011;57203;42.672;23.334;2022-12-07T02:49:18;29.8;;;15.3;;
69917;SDS011;57203;42.672;23.334;2022-12-07T02:50:18;31.6;;;14.8;;
69917;SDS011;57203;42.672;23.334;2022-12-07T02:51:18;31.2;;;15.0;;
69917;SDS011;57203;42.672;23.334;2022-12-07T02:52:19;29.5;;;14.3;;
69917;SDS011;57203;42.672;23.334;2022-12-07T02:54:19;28.1;;;14.5;;
69917;SDS011;57203;42.672;23.334;2022-12-07T02:55:19;28.1;;;16.3;;
69917;SDS011;57203;42.672;23.334;2022-12-07T02:56:20;29.7;;;16.1;;
69917;SDS011;57203;42.672;23.334;2022-12-07T02:57:24;27.8;;;16.2;;
69917;SDS011;57203;42.672;23.334;2022-12-07T02:58:23;29.1;;;15.4;;
69917;SDS011;57203;42.672;23.334;2022-12-07T02:59:23;33.1;;;17.6;;
69917;SDS011;57203;42.672;23.334;2022-12-07T03:00:20;33.1;;;16.4;;
69917;SDS011;57203;42.672;23.334;2022-12-07T03:01:23;30.8;;;15.4;;
69917;SDS011;57203;42.672;23.334;2022-12-07T03:02:24;31.0;;;17.0;;
69917;SDS011;57203;42.672;23.334;2022-12-07T03:03:21;31.0;;;16.7;;
69917;SDS011;57203;42.672;23.334;2022-12-07T03:04:25;29.7;;;15.3;;
69917;SDS011;57203;42.672;23.334;2022-12-07T03:05:26;29.7;;;16.2;;
69917;SDS011;57203;42.672;23.334;2022-12-07T03:06:22;34.0;;;16.5;;
69917;SDS011;57203;42.672;23.334;2022-12-07T03:07:24;32.3;;;16.4;;
69917;SDS011;57203;42.672;23.334;2022-12-07T03:08:24;32.3;;;18.3;;
69917;SDS011;57203;42.672;23.334;2022-12-07T03:09:22;37.0;;;17.4;;
69917;SDS011;57203;42.672;23.334;2022-12-07T03:10:23;31.0;;;16.5;;
69917;SDS011;57203;42.672;23.334;2022-12-07T03:11:23;29.6;;;17.8;;
69917;SDS011;57203;42.672;23.334;2022-12-07T03:12:24;31.1;;;16.3;;
69917;SDS011;57203;42.672;23.334;2022-12-07T03:13:23;31.6;;;19.1;;
69917;SDS011;57203;42.672;23.334;2022-12-07T03:14:23;36.4;;;16.9;;
69917;SDS011;57203;42.672;23.334;2022-12-07T03:15:25;35.3;;;17.2;;
69917;SDS011;57203;42.672;23.334;2022-12-07T03:16:24;31.9;;;17.4;;
69917;SDS011;57203;42.672;23.334;2022-12-07T03:17:24;31.9;;;18.6;;
69917;SDS011;57203;42.672;23.334;2022-12-07T03:18:24;33.7;;;19.6;;
69917;SDS011;57203;42.672;23.334;2022-12-07T03:19:23;39.2;;;21.6;;
69917;SDS011;57203;42.672;23.334;2022-12-07T03:20:23;39.2;;;17.9;;
69917;SDS011;57203;42.672;23.334;2022-12-07T03:21:25;36.6;;;18.6;;
69917;SDS011;57203;42.672;23.334;2022-12-07T03:22:24;42.3;;;18.3;;
69917;SDS011;57203;42.672;23.334;2022-12-07T03:23:24;36.1;;;18.9;;
69917;SDS011;57203;42.672;23.334;2022-12-07T03:24:26;35.1;;;18.8;;
69917;SDS011;57203;42.672;23.334;2022-12-07T03:25:24;36.8;;;18.1;;
69917;SDS011;57203;42.672;23.334;2022-12-07T03:26:28;39.0;;;18.5;;
69917;SDS011;57203;42.672;23.334;2022-12-07T03:27:25;39.0;;;17.3;;
69917;SDS011;57203;42.672;23.334;2022-12-07T03:28:26;35.6;;;17.6;;
69917;SDS011;57203;42.672;23.334;2022-12-07T03:29:26;35.4;;;20.9;;
69917;SDS011;57203;42.672;23.334;2022-12-07T03:30:27;41.2;;;19.7;;
69917;SDS011;57203;42.672;23.334;2022-12-07T03:31:26;37.2;;;19.3;;
69917;SDS011;57203;42.672;23.334;2022-12-07T03:32:26;37.4;;;18.4;;
69917;SDS011;57203;42.672;23.334;2022-12-07T03:33:27;45.5;;;19.0;;
69917;SDS011;57203;42.672;23.334;2022-12-07T03:34:27;37.0;;;18.5;;
69917;SDS011;57203;42.672;23.334;2022-12-07T03:35:27;38.0;;;18.0;;
69917;SDS011;57203;42.672;23.334;2022-12-07T03:36:29;38.0;;;17.1;;
69917;SDS011;57203;42.672;23.334;2022-12-07T03:37:28;34.1;;;18.3;;
69917;SDS011;57203;42.672;23.334;2022-12-07T03:38:27;34.1;;;17.8;;
69917;SDS011;57203;42.672;23.334;2022-12-07T03:39:27;36.0;;;16.5;;
69917;SDS011;57203;42.672;23.334;2022-12-07T03:40:28;30.9;;;15.2;;
69917;SDS011;57203;42.672;23.334;2022-12-07T03:41:28;37.1;;;17.0;;
69917;SDS011;57203;42.672;23.334;2022-12-07T03:42:27;31.7;;;15.0;;
69917;SDS011;57203;42.672;23.334;2022-12-07T03:43:27;32.5;;;17.7;;
69917;SDS011;57203;42.672;23.334;2022-12-07T03:44:27;32.5;;;16.5;;
69917;SDS011;57203;42.672;23.334;2022-12-07T03:45:30;33.8;;;19.0;;
69917;SDS011;57203;42.672;23.334;2022-12-07T03:46:31;34.3;;;17.0;;
69917;SDS011;57203;42.672;23.334;2022-12-07T03:47:29;31.0;;;16.5;;
69917;SDS011;57203;42.672;23.334;2022-12-07T03:48:30;32.0;;;16.4;;
69917;SDS011;57203;42.672;23.334;2022-12-07T03:49:30;34.2;;;18.0;;
69917;SDS011;57203;42.672;23.334;2022-12-07T03:51:30;35.2;;;17.8;;
69917;SDS011;57203;42.672;23.334;2022-12-07T03:52:30;39.5;;;17.1;;
69917;SDS011;57203;42.672;23.334;2022-12-07T03:53:29;33.9;;;17.4;;
69917;SDS011;57203;42.672;23.334;2022-12-07T03:54:30;32.4;;;17.7;;
69917;SDS011;57203;42.672;23.334;2022-12-07T03:55:30;31.4;;;16.1;;
69917;SDS011;57203;42.672;23.334;2022-12-07T03:56:29;34.2;;;16.7;;
69917;SDS011;57203;42.672;23.334;2022-12-07T03:57:30;31.1;;;16.4;;
69917;SDS011;57203;42.672;23.334;2022-12-07T03:58:30;31.1;;;15.1;;
69917;SDS011;57203;42.672;23.334;2022-12-07T03:59:30;29.9;;;15.4;;
69917;SDS011;57203;42.672;23.334;2022-12-07T04:00:30;29.7;;;15.3;;
69917;SDS011;57203;42.672;23.334;2022-12-07T04:01:31;29.7;;;14.9;;
69917;SDS011;57203;42.672;23.334;2022-12-07T04:02:30;38.4;;;15.9;;
69917;SDS011;57203;42.672;23.334;2022-12-07T04:03:31;38.4;;;14.5;;
69917;SDS011;57203;42.672;23.334;2022-12-07T04:04:31;30.4;;;14.4;;
69917;SDS011;57203;42.672;23.334;2022-12-07T04:05:31;29.1;;;15.5;;
69917;SDS011;57203;42.672;23.334;2022-12-07T04:06:31;27.9;;;16.2;;
69917;SDS011;57203;42.672;23.334;2022-12-07T04:07:31;29.0;;;15.7;;
69917;SDS011;57203;42.672;23.334;2022-12-07T04:08:31;31.8;;;14.8;;
69917;SDS011;57203;42.672;23.334;2022-12-07T04:09:31;28.5;;;15.8;;
69917;SDS011;57203;42.672;23.334;2022-12-07T04:10:32;35.7;;;16.7;;
69917;SDS011;57203;42.672;23.334;2022-12-07T04:11:32;35.7;;;16.2;;
69917;SDS011;57203;42.672;23.334;2022-12-07T04:12:32;31.8;;;13.8;;
69917;SDS011;57203;42.672;23.334;2022-12-07T04:13:32;30.6;;;15.6;;
69917;SDS011;57203;42.672;23.334;2022-12-07T04:14:32;30.6;;;15.5;;
69917;SDS011;57203;42.672;23.334;2022-12-07T04:15:33;34.9;;;18.1;;
69917;SDS011;57203;42.672;23.334;2022-12-07T04:16:33;32.9;;;17.3;;
69917;SDS011;57203;42.672;23.334;2022-12-07T04:17:33;32.9;;;16.9;;
69917;SDS011;57203;42.672;23.334;2022-12-07T04:18:33;35.0;;;16.2;;
69917;SDS011;57203;42.672;23.334;2022-12-07T04:19:33;34.0;;;16.9;;
69917;SDS011;57203;42.672;23.334;2022-12-07T04:20:33;34.9;;;15.7;;
69917;SDS011;57203;42.672;23.334;2022-12-07T04:21:34;33.1;;;16.6;;
69917;SDS011;57203;42.672;23.334;2022-12-07T04:22:34;34.6;;;16.1;;
69917;SDS011;57203;42.672;23.334;2022-12-07T04:23:34;36.4;;;16.6;;
69917;SDS011;57203;42.672;23.334;2022-12-07T04:24:34;30.9;;;15.8;;
69917;SDS011;57203;42.672;23.334;2022-12-07T04:25:34;29.7;;;15.9;;
69917;SDS011;57203;42.672;23.334;2022-12-07T04:26:34;39.5;;;16.2;;
69917;SDS011;57203;42.672;23.334;2022-12-07T04:27:35;33.3;;;16.1;;
69917;SDS011;57203;42.672;23.334;2022-12-07T04:28:35;33.1;;;16.5;;
69917;SDS011;57203;42.672;23.334;2022-12-07T04:29:35;33.1;;;16.6;;
69917;SDS011;57203;42.672;23.334;2022-12-07T04:30:35;36.6;;;16.2;;
69917;SDS011;57203;42.672;23.334;2022-12-07T04:31:35;36.6;;;15.9;;
69917;SDS011;57203;42.672;23.334;2022-12-07T04:32:35;32.3;;;15.0;;
69917;SDS011;57203;42.672;23.334;2022-12-07T04:34:36;32.6;;;14.8;;
69917;SDS011;57203;42.672;23.334;2022-12-07T04:35:36;32.6;;;16.5;;
69917;SDS011;57203;42.672;23.334;2022-12-07T04:36:36;37.4;;;16.2;;
69917;SDS011;57203;42.672;23.334;2022-12-07T04:37:36;38.4;;;15.9;;
69917;SDS011;57203;42.672;23.334;2022-12-07T04:38:36;28.7;;;14.3;;
69917;SDS011;57203;42.672;23.334;2022-12-07T04:39:37;31.4;;;14.7;;
69917;SDS011;57203;42.672;23.334;2022-12-07T04:41:37;32.1;;;15.4;;
69917;SDS011;57203;42.672;23.334;2022-12-07T04:42:37;31.6;;;16.2;;
69917;SDS011;57203;42.672;23.334;2022-12-07T04:43:37;31.6;;;16.7;;
69917;SDS011;57203;42.672;23.334;2022-12-07T04:44:37;34.2;;;15.4;;
69917;SDS011;57203;42.672;23.334;2022-12-07T04:45:37;36.5;;;16.4;;
69917;SDS011;57203;42.672;23.334;2022-12-07T04:46:38;37.9;;;15.8;;
69917;SDS011;57203;42.672;23.334;2022-12-07T04:47:38;31.9;;;16.0;;
69917;SDS011;57203;42.672;23.334;2022-12-07T04:48:38;31.7;;;16.2;;
69917;SDS011;57203;42.672;23.334;2022-12-07T04:49:38;33.7;;;15.2;;
69917;SDS011;57203;42.672;23.334;2022-12-07T04:50:38;35.0;;;16.2;;
69917;SDS011;57203;42.672;23.334;2022-12-07T04:51:39;35.3;;;15.8;;
69917;SDS011;57203;42.672;23.334;2022-12-07T04:52:39;35.3;;;16.2;;
69917;SDS011;57203;42.672;23.334;2022-12-07T04:54:39;32.6;;;15.5;;
69917;SDS011;57203;42.672;23.334;2022-12-07T04:55:39;33.3;;;18.9;;
69917;SDS011;57203;42.672;23.334;2022-12-07T04:56:39;42.3;;;16.7;;
69917;SDS011;57203;42.672;23.334;2022-12-07T04:57:39;31.5;;;16.9;;
69917;SDS011;57203;42.672;23.334;2022-12-07T04:58:40;36.6;;;15.7;;
69917;SDS011;57203;42.672;23.334;2022-12-07T05:00:40;34.2;;;15.6;;
69917;SDS011;57203;42.672;23.334;2022-12-07T05:01:40;33.8;;;17.3;;
69917;SDS011;57203;42.672;23.334;2022-12-07T05:02:40;33.1;;;16.9;;
69917;SDS011;57203;42.672;23.334;2022-12-07T05:03:41;33.4;;;16.2;;
69917;SDS011;57203;42.672;23.334;2022-12-07T05:04:41;36.0;;;15.1;;
69917;SDS011;57203;42.672;23.334;2022-12-07T05:05:41;49.6;;;23.0;;
69917;SDS011;57203;42.672;23.334;2022-12-07T05:06:41;49.6;;;20.0;;
69917;SDS011;57203;42.672;23.334;2022-12-07T05:07:41;42.5;;;18.2;;
69917;SDS011;57203;42.672;23.334;2022-12-07T05:08:41;38.1;;;17.4;;
69917;SDS011;57203;42.672;23.334;2022-12-07T05:09:42;39.0;;;18.9;;
69917;SDS011;57203;42.672;23.334;2022-12-07T05:10:42;43.6;;;18.5;;
69917;SDS011;57203;42.672;23.334;2022-12-07T05:11:42;41.7;;;16.5;;
69917;SDS011;57203;42.672;23.334;2022-12-07T05:12:42;35.2;;;16.7;;
69917;SDS011;57203;42.672;23.334;2022-12-07T05:13:42;36.1;;;16.8;;
69917;SDS011;57203;42.672;23.334;2022-12-07T05:14:42;38.9;;;18.0;;
69917;SDS011;57203;42.672;23.334;2022-12-07T05:15:43;40.6;;;17.4;;
69917;SDS011;57203;42.672;23.334;2022-12-07T05:16:43;40.6;;;16.8;;
69917;SDS011;57203;42.672;23.334;2022-12-07T05:18:43;41.3;;;17.1;;
69917;SDS011;57203;42.672;23.334;2022-12-07T05:19:43;41.3;;;17.2;;
69917;SDS011;57203;42.672;23.334;2022-12-07T05:20:44;38.8;;;18.4;;
69917;SDS011;57203;42.672;23.334;2022-12-07T05:21:44;40.0;;;19.0;;
69917;SDS011;57203;42.672;23.334;2022-12-07T05:22:44;40.4;;;18.4;;
69917;SDS011;57203;42.672;23.334;2022-12-07T05:23:44;37.0;;;17.8;;
69917;SDS011;57203;42.672;23.334;2022-12-07T05:24:44;45.4;;;16.1;;
69917;SDS011;57203;42.672;23.334;2022-12-07T05:25:45;35.0;;;17.7;;
69917;SDS011;57203;42.672;23.334;2022-12-07T05:26:44;41.8;;;19.8;;
69917;SDS011;57203;42.672;23.334;2022-12-07T05:27:45;41.8;;;20.9;;
69917;SDS011;57203;42.672;23.334;2022-12-07T05:28:45;46.6;;;18.5;;
69917;SDS011;57203;42.672;23.334;2022-12-07T05:29:45;39.3;;;17.1;;
69917;SDS011;57203;42.672;23.334;2022-12-07T05:30:45;39.0;;;16.7;;
69917;SDS011;57203;42.672;23.334;2022-12-07T05:31:45;39.0;;;18.0;;
69917;SDS011;57203;42.672;23.334;2022-12-07T05:32:45;41.7;;;18.5;;
69917;SDS011;57203;42.672;23.334;2022-12-07T05:33:46;39.1;;;17.4;;
69917;SDS011;57203;42.672;23.334;2022-12-07T05:34:46;40.5;;;16.8;;
69917;SDS011;57203;42.672;23.334;2022-12-07T05:35:46;37.7;;;17.2;;
69917;SDS011;57203;42.672;23.334;2022-12-07T05:36:46;41.3;;;17.8;;
69917;SDS011;57203;42.672;23.334;2022-12-07T05:37:46;37.4;;;16.6;;
69917;SDS011;57203;42.672;23.334;2022-12-07T05:38:47;42.2;;;14.2;;
69917;SDS011;57203;42.672;23.334;2022-12-07T05:39:47;41.2;;;16.0;;
69917;SDS011;57203;42.672;23.334;2022-12-07T05:40:47;41.2;;;16.7;;
69917;SDS011;57203;42.672;23.334;2022-12-07T05:41:47;35.7;;;17.9;;
69917;SDS011;57203;42.672;23.334;2022-12-07T05:42:47;48.4;;;22.5;;
69917;SDS011;57203;42.672;23.334;2022-12-07T05:43:47;46.3;;;20.2;;
69917;SDS011;57203;42.672;23.334;2022-12-07T05:44:47;39.9;;;21.9;;
69917;SDS011;57203;42.672;23.334;2022-12-07T05:45:48;51.4;;;23.3;;
69917;SDS011;57203;42.672;23.334;2022-12-07T05:46:48;53.3;;;22.4;;
69917;SDS011;57203;42.672;23.334;2022-12-07T05:48:48;44.5;;;20.4;;
69917;SDS011;57203;42.672;23.334;2022-12-07T05:49:48;49.3;;;21.2;;
69917;SDS011;57203;42.672;23.334;2022-12-07T05:50:49;46.3;;;20.0;;
69917;SDS011;57203;42.672;23.334;2022-12-07T05:51:49;45.7;;;19.9;;
69917;SDS011;57203;42.672;23.334;2022-12-07T05:52:49;41.9;;;16.8;;
69917;SDS011;57203;42.672;23.334;2022-12-07T05:53:49;38.1;;;17.3;;
69917;SDS011;57203;42.672;23.334;2022-12-07T05:54:49;38.1;;;17.9;;
69917;SDS011;57203;42.672;23.334;2022-12-07T05:55:49;40.0;;;17.7;;
69917;SDS011;57203;42.672;23.334;2022-12-07T05:56:50;41.0;;;18.2;;
69917;SDS011;57203;42.672;23.334;2022-12-07T05:57:50;40.1;;;16.9;;
69917;SDS011;57203;42.672;23.334;2022-12-07T05:58:50;38.2;;;18.1;;
69917;SDS011;57203;42.672;23.334;2022-12-07T05:59:50;41.4;;;19.5;;
69917;SDS011;57203;42.672;23.334;2022-12-07T06:00:50;47.0;;;18.7;;
69917;SDS011;57203;42.672;23.334;2022-12-07T06:01:51;44.7;;;19.6;;
69917;SDS011;57203;42.672;23.334;2022-12-07T06:02:51;46.3;;;42.2;;
69917;SDS011;57203;42.672;23.334;2022-12-07T06:03:51;94.3;;;39.1;;
69917;SDS011;57203;42.672;23.334;2022-12-07T06:04:51;88.7;;;43.3;;
69917;SDS011;57203;42.672;23.334;2022-12-07T06:05:51;99.3;;;29.6;;
69917;SDS011;57203;42.672;23.334;2022-12-07T06:06:51;54.8;;;24.1;;
69917;SDS011;57203;42.672;23.334;2022-12-07T06:07:51;60.6;;;22.8;;
69917;SDS011;57203;42.672;23.334;2022-12-07T06:08:51;60.6;;;25.0;;
69917;SDS011;57203;42.672;23.334;2022-12-07T06:09:52;53.7;;;21.0;;
69917;SDS011;57203;42.672;23.334;2022-12-07T06:10:52;43.1;;;24.3;;
69917;SDS011;57203;42.672;23.334;2022-12-07T06:11:52;52.7;;;19.3;;
69917;SDS011;57203;42.672;23.334;2022-12-07T06:12:52;42.8;;;18.7;;
69917;SDS011;57203;42.672;23.334;2022-12-07T06:13:52;39.7;;;19.1;;
69917;SDS011;57203;42.672;23.334;2022-12-07T06:14:53;48.5;;;19.9;;